sensor_id;sensor_type;location;lat;lon;timestamp;P1;durP1;ratioP1;P2;durP2;ratioP2
51692;SDS011;37777;53.066;21.638;2023-06-19T00:00:01;18.27;;;16.30;;
51692;SDS011;37777;53.066;21.638;2023-06-19T00:07:08;16.83;;;15.13;;
51692;SDS011;37777;53.066;21.638;2023-06-19T00:14:10;18.55;;;16.50;;
51692;SDS011;37777;53.066;21.638;2023-06-19T00:21:13;20.25;;;17.40;;
51692;SDS011;37777;53.066;21.638;2023-06-19T00:28:15;17.90;;;16.05;;
51692;SDS011;37777;53.066;21.638;2023-06-19T00:35:21;18.70;;;16.80;;
51692;SDS011;37777;53.066;21.638;2023-06-19T00:42:23;19.75;;;17.65;;
51692;SDS011;37777;53.066;21.638;2023-06-19T00:49:26;20.15;;;17.45;;
51692;SDS011;37777;53.066;21.638;2023-06-19T00:56:30;17.80;;;15.90;;
51692;SDS011;37777;53.066;21.638;2023-06-19T01:03:33;15.75;;;14.10;;
51692;SDS011;37777;53.066;21.638;2023-06-19T01:10:39;20.10;;;17.95;;
51692;SDS011;37777;53.066;21.638;2023-06-19T01:24:49;15.75;;;14.20;;
51692;SDS011;37777;53.066;21.638;2023-06-19T01:39:06;17.25;;;15.57;;
51692;SDS011;37777;53.066;21.638;2023-06-19T01:46:10;16.90;;;15.30;;
51692;SDS011;37777;53.066;21.638;2023-06-19T01:53:13;16.05;;;14.25;;
51692;SDS011;37777;53.066;21.638;2023-06-19T02:00:15;15.85;;;14.27;;
51692;SDS011;37777;53.066;21.638;2023-06-19T02:07:18;16.58;;;14.98;;
51692;SDS011;37777;53.066;21.638;2023-06-19T02:14:20;15.30;;;13.80;;
51692;SDS011;37777;53.066;21.638;2023-06-19T02:21:23;15.85;;;14.10;;
51692;SDS011;37777;53.066;21.638;2023-06-19T02:28:25;16.10;;;14.60;;
51692;SDS011;37777;53.066;21.638;2023-06-19T02:35:27;16.15;;;14.45;;
51692;SDS011;37777;53.066;21.638;2023-06-19T02:42:29;16.67;;;15.18;;
51692;SDS011;37777;53.066;21.638;2023-06-19T02:49:31;15.85;;;14.45;;
51692;SDS011;37777;53.066;21.638;2023-06-19T02:56:33;14.93;;;13.60;;
51692;SDS011;37777;53.066;21.638;2023-06-19T03:03:35;13.60;;;12.43;;
51692;SDS011;37777;53.066;21.638;2023-06-19T03:10:39;15.52;;;13.98;;
51692;SDS011;37777;53.066;21.638;2023-06-19T03:17:41;18.00;;;16.30;;
51692;SDS011;37777;53.066;21.638;2023-06-19T03:24:43;23.75;;;19.35;;
51692;SDS011;37777;53.066;21.638;2023-06-19T03:31:45;22.05;;;18.25;;
51692;SDS011;37777;53.066;21.638;2023-06-19T03:38:48;21.48;;;19.25;;
51692;SDS011;37777;53.066;21.638;2023-06-19T03:45:50;21.40;;;19.30;;
51692;SDS011;37777;53.066;21.638;2023-06-19T03:52:52;24.42;;;20.77;;
51692;SDS011;37777;53.066;21.638;2023-06-19T03:59:56;22.45;;;20.20;;
51692;SDS011;37777;53.066;21.638;2023-06-19T04:06:58;24.35;;;19.70;;
51692;SDS011;37777;53.066;21.638;2023-06-19T04:14:03;26.30;;;22.77;;
51692;SDS011;37777;53.066;21.638;2023-06-19T04:21:05;25.08;;;22.27;;
51692;SDS011;37777;53.066;21.638;2023-06-19T04:28:07;22.75;;;20.45;;
51692;SDS011;37777;53.066;21.638;2023-06-19T04:35:09;22.95;;;20.55;;
51692;SDS011;37777;53.066;21.638;2023-06-19T04:42:16;22.02;;;19.80;;
51692;SDS011;37777;53.066;21.638;2023-06-19T04:49:20;21.05;;;18.85;;
51692;SDS011;37777;53.066;21.638;2023-06-19T04:56:24;22.58;;;19.52;;
51692;SDS011;37777;53.066;21.638;2023-06-19T05:03:26;20.65;;;18.48;;
51692;SDS011;37777;53.066;21.638;2023-06-19T05:10:28;21.67;;;18.05;;
51692;SDS011;37777;53.066;21.638;2023-06-19T05:17:30;24.45;;;19.48;;
51692;SDS011;37777;53.066;21.638;2023-06-19T05:24:33;21.98;;;19.77;;
51692;SDS011;37777;53.066;21.638;2023-06-19T05:31:35;24.30;;;20.75;;
51692;SDS011;37777;53.066;21.638;2023-06-19T05:38:37;22.27;;;19.77;;
51692;SDS011;37777;53.066;21.638;2023-06-19T05:45:39;21.55;;;17.73;;
51692;SDS011;37777;53.066;21.638;2023-06-19T05:52:42;20.05;;;17.17;;
51692;SDS011;37777;53.066;21.638;2023-06-19T05:59:44;18.60;;;16.73;;
51692;SDS011;37777;53.066;21.638;2023-06-19T06:06:46;17.45;;;15.75;;
51692;SDS011;37777;53.066;21.638;2023-06-19T06:13:49;16.73;;;15.18;;
51692;SDS011;37777;53.066;21.638;2023-06-19T06:20:51;16.38;;;14.68;;
51692;SDS011;37777;53.066;21.638;2023-06-19T06:27:52;16.13;;;14.55;;
51692;SDS011;37777;53.066;21.638;2023-06-19T06:34:55;19.50;;;15.55;;
51692;SDS011;37777;53.066;21.638;2023-06-19T06:41:57;14.35;;;13.13;;
51692;SDS011;37777;53.066;21.638;2023-06-19T06:48:59;15.18;;;13.50;;
51692;SDS011;37777;53.066;21.638;2023-06-19T06:56:01;15.40;;;13.75;;
51692;SDS011;37777;53.066;21.638;2023-06-19T07:03:04;15.50;;;13.98;;
51692;SDS011;37777;53.066;21.638;2023-06-19T07:10:06;14.98;;;13.68;;
51692;SDS011;37777;53.066;21.638;2023-06-19T07:17:09;17.02;;;13.85;;
51692;SDS011;37777;53.066;21.638;2023-06-19T07:24:11;16.17;;;14.60;;
51692;SDS011;37777;53.066;21.638;2023-06-19T07:31:13;14.25;;;13.05;;
51692;SDS011;37777;53.066;21.638;2023-06-19T07:38:15;14.85;;;13.65;;
51692;SDS011;37777;53.066;21.638;2023-06-19T07:45:17;42.53;;;16.30;;
51692;SDS011;37777;53.066;21.638;2023-06-19T07:52:22;14.75;;;13.40;;
51692;SDS011;37777;53.066;21.638;2023-06-19T07:59:26;15.95;;;14.65;;
51692;SDS011;37777;53.066;21.638;2023-06-19T08:06:28;26.10;;;12.85;;
51692;SDS011;37777;53.066;21.638;2023-06-19T08:13:30;14.13;;;12.77;;
51692;SDS011;37777;53.066;21.638;2023-06-19T08:20:32;14.60;;;13.30;;
51692;SDS011;37777;53.066;21.638;2023-06-19T08:27:34;23.77;;;15.20;;
51692;SDS011;37777;53.066;21.638;2023-06-19T08:34:36;15.60;;;14.30;;
51692;SDS011;37777;53.066;21.638;2023-06-19T08:41:39;16.52;;;15.13;;
51692;SDS011;37777;53.066;21.638;2023-06-19T08:48:43;15.38;;;13.93;;
51692;SDS011;37777;53.066;21.638;2023-06-19T08:55:46;15.18;;;13.98;;
51692;SDS011;37777;53.066;21.638;2023-06-19T09:02:48;15.57;;;14.30;;
51692;SDS011;37777;53.066;21.638;2023-06-19T09:10:15;16.42;;;15.13;;
51692;SDS011;37777;53.066;21.638;2023-06-19T09:17:19;13.80;;;12.40;;
51692;SDS011;37777;53.066;21.638;2023-06-19T09:24:22;14.73;;;13.63;;
51692;SDS011;37777;53.066;21.638;2023-06-19T09:31:32;14.13;;;13.00;;
51692;SDS011;37777;53.066;21.638;2023-06-19T09:38:36;13.85;;;12.85;;
51692;SDS011;37777;53.066;21.638;2023-06-19T09:45:42;15.48;;;14.38;;
51692;SDS011;37777;53.066;21.638;2023-06-19T09:52:45;13.75;;;12.77;;
51692;SDS011;37777;53.066;21.638;2023-06-19T09:59:47;15.77;;;14.32;;
51692;SDS011;37777;53.066;21.638;2023-06-19T10:06:52;13.38;;;12.38;;
51692;SDS011;37777;53.066;21.638;2023-06-19T10:14:05;14.18;;;13.05;;
51692;SDS011;37777;53.066;21.638;2023-06-19T10:21:15;14.13;;;13.07;;
51692;SDS011;37777;53.066;21.638;2023-06-19T10:28:25;14.18;;;13.18;;
51692;SDS011;37777;53.066;21.638;2023-06-19T10:35:28;14.60;;;13.50;;
51692;SDS011;37777;53.066;21.638;2023-06-19T10:42:30;14.40;;;13.35;;
51692;SDS011;37777;53.066;21.638;2023-06-19T10:49:33;13.95;;;12.77;;
51692;SDS011;37777;53.066;21.638;2023-06-19T10:56:36;14.55;;;13.55;;
51692;SDS011;37777;53.066;21.638;2023-06-19T11:03:39;13.43;;;12.52;;
51692;SDS011;37777;53.066;21.638;2023-06-19T11:10:41;14.57;;;13.52;;
51692;SDS011;37777;53.066;21.638;2023-06-19T11:17:44;14.18;;;12.85;;
51692;SDS011;37777;53.066;21.638;2023-06-19T11:24:46;13.05;;;12.15;;
51692;SDS011;37777;53.066;21.638;2023-06-19T11:31:50;12.40;;;11.50;;
51692;SDS011;37777;53.066;21.638;2023-06-19T11:38:55;12.48;;;11.57;;
51692;SDS011;37777;53.066;21.638;2023-06-19T11:46:04;13.15;;;12.25;;
51692;SDS011;37777;53.066;21.638;2023-06-19T11:53:09;12.40;;;11.40;;
51692;SDS011;37777;53.066;21.638;2023-06-19T12:00:12;12.23;;;11.43;;
51692;SDS011;37777;53.066;21.638;2023-06-19T12:07:18;12.13;;;11.23;;
51692;SDS011;37777;53.066;21.638;2023-06-19T12:14:21;12.32;;;11.35;;
51692;SDS011;37777;53.066;21.638;2023-06-19T12:21:23;13.65;;;12.65;;
51692;SDS011;37777;53.066;21.638;2023-06-19T12:28:37;12.35;;;11.45;;
51692;SDS011;37777;53.066;21.638;2023-06-19T12:35:40;11.90;;;10.90;;
51692;SDS011;37777;53.066;21.638;2023-06-19T12:42:42;12.35;;;11.52;;
51692;SDS011;37777;53.066;21.638;2023-06-19T12:49:45;13.80;;;12.80;;
51692;SDS011;37777;53.066;21.638;2023-06-19T12:56:47;12.52;;;11.65;;
51692;SDS011;37777;53.066;21.638;2023-06-19T13:03:50;13.20;;;12.07;;
51692;SDS011;37777;53.066;21.638;2023-06-19T13:10:52;13.70;;;12.60;;
51692;SDS011;37777;53.066;21.638;2023-06-19T13:17:54;9.50;;;8.88;;
51692;SDS011;37777;53.066;21.638;2023-06-19T13:24:56;8.70;;;8.10;;
51692;SDS011;37777;53.066;21.638;2023-06-19T13:31:59;8.10;;;7.53;;
51692;SDS011;37777;53.066;21.638;2023-06-19T13:39:01;10.13;;;8.80;;
51692;SDS011;37777;53.066;21.638;2023-06-19T13:46:04;8.90;;;8.30;;
51692;SDS011;37777;53.066;21.638;2023-06-19T13:53:09;8.30;;;7.70;;
51692;SDS011;37777;53.066;21.638;2023-06-19T14:00:13;8.30;;;7.70;;
51692;SDS011;37777;53.066;21.638;2023-06-19T14:07:16;9.27;;;8.40;;
51692;SDS011;37777;53.066;21.638;2023-06-19T14:14:20;7.57;;;6.97;;
51692;SDS011;37777;53.066;21.638;2023-06-19T14:21:23;11.05;;;10.15;;
51692;SDS011;37777;53.066;21.638;2023-06-19T14:28:25;10.77;;;9.98;;
51692;SDS011;37777;53.066;21.638;2023-06-19T14:35:27;11.85;;;10.98;;
51692;SDS011;37777;53.066;21.638;2023-06-19T14:42:29;8.80;;;8.00;;
51692;SDS011;37777;53.066;21.638;2023-06-19T14:49:31;9.30;;;8.60;;
51692;SDS011;37777;53.066;21.638;2023-06-19T14:56:33;8.55;;;7.95;;
51692;SDS011;37777;53.066;21.638;2023-06-19T15:03:35;7.47;;;6.78;;
51692;SDS011;37777;53.066;21.638;2023-06-19T15:10:38;8.52;;;7.82;;
51692;SDS011;37777;53.066;21.638;2023-06-19T15:17:40;10.20;;;9.50;;
51692;SDS011;37777;53.066;21.638;2023-06-19T15:24:42;10.88;;;10.18;;
51692;SDS011;37777;53.066;21.638;2023-06-19T15:31:45;8.73;;;7.93;;
51692;SDS011;37777;53.066;21.638;2023-06-19T15:38:47;8.77;;;8.05;;
51692;SDS011;37777;53.066;21.638;2023-06-19T15:45:49;9.30;;;8.70;;
51692;SDS011;37777;53.066;21.638;2023-06-19T15:52:51;8.55;;;7.95;;
51692;SDS011;37777;53.066;21.638;2023-06-19T15:59:53;8.95;;;8.35;;
51692;SDS011;37777;53.066;21.638;2023-06-19T16:06:56;8.20;;;7.70;;
51692;SDS011;37777;53.066;21.638;2023-06-19T16:13:58;9.75;;;8.95;;
51692;SDS011;37777;53.066;21.638;2023-06-19T16:21:01;9.13;;;8.52;;
51692;SDS011;37777;53.066;21.638;2023-06-19T16:28:03;8.30;;;7.70;;
51692;SDS011;37777;53.066;21.638;2023-06-19T16:35:05;8.88;;;8.10;;
51692;SDS011;37777;53.066;21.638;2023-06-19T16:42:08;10.45;;;9.65;;
51692;SDS011;37777;53.066;21.638;2023-06-19T16:49:10;9.82;;;9.13;;
51692;SDS011;37777;53.066;21.638;2023-06-19T16:56:12;10.27;;;9.48;;
51692;SDS011;37777;53.066;21.638;2023-06-19T17:03:14;10.43;;;9.70;;
51692;SDS011;37777;53.066;21.638;2023-06-19T17:10:16;10.57;;;9.77;;
51692;SDS011;37777;53.066;21.638;2023-06-19T17:17:18;12.00;;;10.98;;
51692;SDS011;37777;53.066;21.638;2023-06-19T17:24:20;11.48;;;10.52;;
51692;SDS011;37777;53.066;21.638;2023-06-19T17:31:22;12.63;;;11.40;;
51692;SDS011;37777;53.066;21.638;2023-06-19T17:38:24;12.80;;;11.48;;
51692;SDS011;37777;53.066;21.638;2023-06-19T17:45:27;11.85;;;10.95;;
51692;SDS011;37777;53.066;21.638;2023-06-19T17:52:29;13.65;;;12.35;;
51692;SDS011;37777;53.066;21.638;2023-06-19T17:59:31;13.02;;;11.93;;
51692;SDS011;37777;53.066;21.638;2023-06-19T18:06:33;11.68;;;10.77;;
51692;SDS011;37777;53.066;21.638;2023-06-19T18:13:35;19.00;;;11.88;;
51692;SDS011;37777;53.066;21.638;2023-06-19T18:20:37;10.30;;;9.50;;
51692;SDS011;37777;53.066;21.638;2023-06-19T18:27:42;13.02;;;11.93;;
51692;SDS011;37777;53.066;21.638;2023-06-19T18:34:44;12.73;;;11.63;;
51692;SDS011;37777;53.066;21.638;2023-06-19T18:41:46;13.65;;;12.48;;
51692;SDS011;37777;53.066;21.638;2023-06-19T18:48:48;12.63;;;11.43;;
51692;SDS011;37777;53.066;21.638;2023-06-19T18:55:50;15.55;;;12.82;;
51692;SDS011;37777;53.066;21.638;2023-06-19T19:02:55;13.20;;;12.00;;
51692;SDS011;37777;53.066;21.638;2023-06-19T19:09:58;15.77;;;14.23;;
51692;SDS011;37777;53.066;21.638;2023-06-19T19:17:00;14.82;;;13.23;;
51692;SDS011;37777;53.066;21.638;2023-06-19T19:24:03;18.25;;;13.43;;
51692;SDS011;37777;53.066;21.638;2023-06-19T19:31:05;22.73;;;12.88;;
51692;SDS011;37777;53.066;21.638;2023-06-19T19:38:09;15.48;;;14.10;;
51692;SDS011;37777;53.066;21.638;2023-06-19T19:45:11;15.90;;;12.43;;
51692;SDS011;37777;53.066;21.638;2023-06-19T19:52:13;12.93;;;11.73;;
51692;SDS011;37777;53.066;21.638;2023-06-19T19:59:16;14.82;;;12.45;;
51692;SDS011;37777;53.066;21.638;2023-06-19T20:06:18;15.40;;;13.90;;
51692;SDS011;37777;53.066;21.638;2023-06-19T20:13:20;14.52;;;13.02;;
51692;SDS011;37777;53.066;21.638;2023-06-19T20:20:22;22.00;;;14.48;;
51692;SDS011;37777;53.066;21.638;2023-06-19T20:27:25;17.13;;;15.05;;
51692;SDS011;37777;53.066;21.638;2023-06-19T20:34:28;18.20;;;14.38;;
51692;SDS011;37777;53.066;21.638;2023-06-19T20:41:30;23.30;;;15.00;;
51692;SDS011;37777;53.066;21.638;2023-06-19T20:48:32;34.10;;;14.73;;
51692;SDS011;37777;53.066;21.638;2023-06-19T20:55:34;17.90;;;14.88;;
51692;SDS011;37777;53.066;21.638;2023-06-19T21:02:38;27.02;;;17.52;;
51692;SDS011;37777;53.066;21.638;2023-06-19T21:09:41;21.70;;;17.55;;
51692;SDS011;37777;53.066;21.638;2023-06-19T21:16:43;21.92;;;16.48;;
51692;SDS011;37777;53.066;21.638;2023-06-19T21:23:45;19.40;;;16.13;;
51692;SDS011;37777;53.066;21.638;2023-06-19T21:30:47;20.67;;;16.40;;
51692;SDS011;37777;53.066;21.638;2023-06-19T21:37:49;16.40;;;14.68;;
51692;SDS011;37777;53.066;21.638;2023-06-19T21:44:51;15.63;;;14.02;;
51692;SDS011;37777;53.066;21.638;2023-06-19T21:51:53;17.02;;;15.43;;
51692;SDS011;37777;53.066;21.638;2023-06-19T21:58:55;18.02;;;16.15;;
51692;SDS011;37777;53.066;21.638;2023-06-19T22:05:57;17.02;;;15.25;;
51692;SDS011;37777;53.066;21.638;2023-06-19T22:13:02;17.33;;;15.52;;
51692;SDS011;37777;53.066;21.638;2023-06-19T22:20:04;18.58;;;15.80;;
51692;SDS011;37777;53.066;21.638;2023-06-19T22:27:09;17.88;;;15.95;;
51692;SDS011;37777;53.066;21.638;2023-06-19T22:34:15;17.65;;;16.05;;
51692;SDS011;37777;53.066;21.638;2023-06-19T22:41:17;16.38;;;14.77;;
51692;SDS011;37777;53.066;21.638;2023-06-19T22:48:19;16.88;;;15.07;;
51692;SDS011;37777;53.066;21.638;2023-06-19T22:55:21;17.73;;;15.82;;
51692;SDS011;37777;53.066;21.638;2023-06-19T23:02:24;19.33;;;17.33;;
51692;SDS011;37777;53.066;21.638;2023-06-19T23:09:26;19.02;;;17.08;;
51692;SDS011;37777;53.066;21.638;2023-06-19T23:16:31;21.25;;;18.13;;
51692;SDS011;37777;53.066;21.638;2023-06-19T23:23:34;20.25;;;18.25;;
51692;SDS011;37777;53.066;21.638;2023-06-19T23:30:37;19.48;;;17.42;;
51692;SDS011;37777;53.066;21.638;2023-06-19T23:37:39;26.33;;;17.52;;
51692;SDS011;37777;53.066;21.638;2023-06-19T23:44:42;21.17;;;16.48;;
51692;SDS011;37777;53.066;21.638;2023-06-19T23:51:44;19.95;;;17.85;;
51692;SDS011;37777;53.066;21.638;2023-06-19T23:58:46;19.27;;;16.65;;
